Time;durP1;ratioP1;P1;durP2;ratioP2;P2;SDS_P1;SDS_P2;PMS_P1;PMS_P2;Temp;Humidity;BMP_temperature;BMP_pressure;BME280_temperature;BME280_humidity;BME280_pressure;Samples;Min_cycle;Max_cycle;Signal;HPM_P1;HPM_P2
2021/04/01 00:00:51;;;;;;;15.40;8.30;;;10.50;82.30;;;;;;1787724;80;21722;-71
2021/04/01 00:03:18;;;;;;;12.68;7.95;;;10.40;81.80;;;;;;1787485;80;21129;-71
2021/04/01 00:05:46;;;;;;;14.40;8.13;;;10.40;82.40;;;;;;1787570;80;21149;-70
2021/04/01 00:08:14;;;;;;;13.98;8.10;;;10.40;82.30;;;;;;1787649;80;21295;-70
2021/04/01 00:10:45;;;;;;;14.73;7.92;;;10.30;82.60;;;;;;1787624;80;21157;-71
2021/04/01 00:13:13;;;;;;;13.83;7.83;;;10.30;82.90;;;;;;1787515;80;21110;-69
2021/04/01 00:15:42;;;;;;;15.53;7.70;;;10.30;83.00;;;;;;1787828;80;21559;-70
2021/04/01 00:18:15;;;;;;;13.65;7.72;;;10.30;82.90;;;;;;1788026;80;21303;-70
2021/04/01 00:20:43;;;;;;;12.82;7.30;;;10.30;83.10;;;;;;1787401;80;21172;-71
2021/04/01 00:23:12;;;;;;;11.78;7.65;;;10.30;83.10;;;;;;1788181;80;21136;-71
2021/04/01 00:25:40;;;;;;;13.22;8.10;;;10.40;82.60;;;;;;1788143;80;21126;-70
2021/04/01 00:28:08;;;;;;;12.73;7.20;;;10.30;83.10;;;;;;1780671;80;21303;-71
2021/04/01 00:30:36;;;;;;;13.70;7.70;;;10.30;83.40;;;;;;1779314;80;21177;-71
2021/04/01 00:33:04;;;;;;;15.93;7.80;;;10.30;83.80;;;;;;1779617;80;21718;-70
2021/04/01 00:35:32;;;;;;;12.33;7.08;;;10.30;83.70;;;;;;1779320;80;21138;-69
2021/04/01 00:38:00;;;;;;;12.47;7.50;;;10.30;83.10;;;;;;1779513;81;21137;-70
2021/04/01 00:40:28;;;;;;;14.50;8.20;;;10.30;82.40;;;;;;1779364;81;21148;-69
2021/04/01 00:42:55;;;;;;;14.05;7.65;;;10.20;82.90;;;;;;1779559;81;21291;-69
2021/04/01 00:45:24;;;;;;;13.68;7.70;;;10.20;83.30;;;;;;1779210;81;21322;-70
2021/04/01 00:47:54;;;;;;;14.73;8.13;;;10.10;83.80;;;;;;1779290;81;21285;-70
2021/04/01 00:50:27;;;;;;;13.60;7.55;;;10.10;83.60;;;;;;1779525;80;21157;-70
2021/04/01 00:52:55;;;;;;;15.13;8.05;;;10.10;83.90;;;;;;1779618;81;21134;-70
2021/04/01 00:55:25;;;;;;;13.68;7.50;;;10.00;84.40;;;;;;1761284;81;21146;-70
2021/04/01 00:57:57;;;;;;;11.55;7.80;;;10.00;84.90;;;;;;1748607;82;21631;-69
2021/04/01 01:00:29;;;;;;;17.57;8.13;;;10.00;85.00;;;;;;1748443;82;21280;-70
2021/04/01 01:02:55;;;;;;;13.20;7.50;;;10.00;85.60;;;;;;1755061;81;21110;-69
2021/04/01 01:05:26;;;;;;;13.48;7.72;;;10.10;85.40;;;;;;1759554;81;21169;-69
2021/04/01 01:07:53;;;;;;;15.28;9.03;;;9.90;85.90;;;;;;1757348;81;21142;-70
2021/04/01 01:10:28;;;;;;;13.20;8.18;;;9.90;86.40;;;;;;1757221;81;21094;-70
2021/04/01 01:13:00;;;;;;;13.95;7.67;;;9.90;88.30;;;;;;1756982;81;21530;-71
2021/04/01 01:15:29;;;;;;;13.03;7.80;;;9.80;89.10;;;;;;1748331;82;21150;-71
2021/04/01 01:17:57;;;;;;;13.05;7.90;;;9.90;88.50;;;;;;1753729;80;21133;-72
2021/04/01 01:20:28;;;;;;;17.25;8.35;;;10.00;88.50;;;;;;1754686;80;21567;-72
2021/04/01 01:22:59;;;;;;;12.30;7.15;;;10.10;88.30;;;;;;1755185;81;21133;-70
2021/04/01 01:25:27;;;;;;;12.23;7.37;;;10.10;87.80;;;;;;1765829;81;21113;-69
2021/04/01 01:27:54;;;;;;;13.25;7.25;;;10.20;87.30;;;;;;1763915;80;21162;-71
2021/04/01 01:30:23;;;;;;;14.63;7.72;;;10.30;85.70;;;;;;1766616;80;21139;-71
2021/04/01 01:32:58;;;;;;;11.90;7.20;;;10.20;85.20;;;;;;1756453;81;21133;-71
2021/04/01 01:35:31;;;;;;;15.03;7.92;;;10.10;85.70;;;;;;1760732;80;21154;-71
2021/04/01 01:38:12;;;;;;;12.55;7.20;;;10.00;85.70;;;;;;1757827;80;21611;-71
2021/04/01 01:40:40;;;;;;;11.73;6.95;;;10.00;85.80;;;;;;1702880;84;21141;-72
2021/04/01 01:43:15;;;;;;;13.00;6.75;;;10.00;85.40;;;;;;1698302;83;21109;-72
2021/04/01 01:45:44;;;;;;;12.63;7.85;;;9.90;85.50;;;;;;1698110;84;21149;-70
2021/04/01 01:48:13;;;;;;;12.58;7.20;;;9.90;85.10;;;;;;1699382;84;21163;-70
2021/04/01 01:50:41;;;;;;;12.95;7.55;;;9.80;85.70;;;;;;1698164;84;21182;-70
2021/04/01 01:53:10;;;;;;;13.00;7.65;;;9.80;86.10;;;;;;1697487;84;21145;-70
2021/04/01 01:55:40;;;;;;;12.37;7.60;;;9.80;86.60;;;;;;1699219;84;21156;-69
2021/04/01 01:58:08;;;;;;;12.13;7.33;;;9.80;86.40;;;;;;1698099;83;21157;-70
2021/04/01 02:00:50;;;;;;;13.13;7.03;;;9.80;86.30;;;;;;1696237;84;21624;-70
2021/04/01 02:03:18;;;;;;;13.83;7.20;;;9.80;86.60;;;;;;1701737;84;21149;-70
2021/04/01 02:05:46;;;;;;;11.48;7.20;;;9.80;86.60;;;;;;1700766;84;21177;-74
2021/04/01 02:08:14;;;;;;;11.20;6.95;;;9.90;86.50;;;;;;1703857;84;21726;-75
2021/04/01 02:10:46;;;;;;;12.25;7.12;;;9.80;85.50;;;;;;1701352;83;21197;-73
2021/04/01 02:13:21;;;;;;;11.70;7.42;;;9.80;85.70;;;;;;1703352;84;21174;-74
2021/04/01 02:15:51;;;;;;;12.67;6.63;;;9.70;85.80;;;;;;1700474;84;21177;-72
2021/04/01 02:18:24;;;;;;;10.98;6.78;;;9.60;85.70;;;;;;1695947;84;21600;-73
2021/04/01 02:20:56;;;;;;;11.93;6.15;;;9.60;85.40;;;;;;1697908;84;21218;-74
2021/04/01 02:23:32;;;;;;;11.05;6.78;;;9.50;86.20;;;;;;1694964;84;21159;-74
2021/04/01 02:26:03;;;;;;;11.57;6.92;;;9.50;86.30;;;;;;1698669;84;21614;-74
2021/04/01 02:28:35;;;;;;;12.60;7.50;;;9.40;86.60;;;;;;1701784;84;21161;-73
2021/04/01 02:31:09;;;;;;;11.55;7.12;;;9.40;87.20;;;;;;1701577;84;21176;-71
2021/04/01 02:33:38;;;;;;;14.35;7.72;;;9.30;87.40;;;;;;1701636;84;21583;-72
2021/04/01 02:36:07;;;;;;;10.68;6.78;;;9.20;89.40;;;;;;1701682;84;21137;-71
2021/04/01 02:38:34;;;;;;;12.65;6.92;;;9.20;89.40;;;;;;1701317;83;21580;-74
2021/04/01 02:41:02;;;;;;;11.48;6.55;;;9.20;89.40;;;;;;1695818;84;21161;-72
2021/04/01 02:43:33;;;;;;;12.28;6.85;;;9.10;90.00;;;;;;1696082;84;21600;-74
2021/04/01 02:46:07;;;;;;;11.08;6.20;;;9.10;90.10;;;;;;1696111;84;21209;-75
2021/04/01 02:48:35;;;;;;;12.88;7.08;;;9.20;90.00;;;;;;1695971;84;21624;-74
2021/04/01 02:51:04;;;;;;;11.03;6.75;;;9.30;90.30;;;;;;1695778;85;21202;-75
2021/04/01 02:53:32;;;;;;;11.45;6.75;;;9.30;91.10;;;;;;1695735;85;21165;-74
2021/04/01 02:56:00;;;;;;;13.85;7.37;;;9.30;90.90;;;;;;1695785;84;21206;-74
2021/04/01 02:58:28;;;;;;;13.98;7.55;;;9.30;91.00;;;;;;1696075;85;21180;-75
2021/04/01 03:00:57;;;;;;;13.88;6.90;;;9.30;91.20;;;;;;1695901;85;21189;-74
2021/04/01 03:03:29;;;;;;;12.28;7.22;;;9.40;91.50;;;;;;1695685;84;21288;-75
2021/04/01 03:05:56;;;;;;;13.00;7.58;;;9.40;91.50;;;;;;1695598;84;21138;-73
2021/04/01 03:08:24;;;;;;;13.13;7.35;;;9.50;91.60;;;;;;1695816;85;21197;-73
2021/04/01 03:10:52;;;;;;;11.65;6.78;;;9.50;91.40;;;;;;1696204;83;21342;-72
2021/04/01 03:13:20;;;;;;;9.90;5.97;;;9.50;91.10;;;;;;1696648;84;21295;-75
2021/04/01 03:15:50;;;;;;;12.45;6.42;;;9.50;90.80;;;;;;1696614;84;21161;-74
2021/04/01 03:18:20;;;;;;;10.43;6.15;;;9.50;90.50;;;;;;1696682;84;21327;-72
2021/04/01 03:20:49;;;;;;;14.35;6.67;;;9.40;90.40;;;;;;1696581;84;21315;-73
2021/04/01 03:23:17;;;;;;;11.12;6.60;;;9.50;89.70;;;;;;1696357;84;21160;-72
2021/04/01 03:25:45;;;;;;;9.73;6.05;;;9.50;89.30;;;;;;1702434;84;21165;-72
2021/04/01 03:28:15;;;;;;;10.48;5.53;;;9.50;88.70;;;;;;1696496;84;21184;-70
2021/04/01 03:30:48;;;;;;;10.80;5.80;;;9.50;88.00;;;;;;1697171;84;21185;-73
2021/04/01 03:33:12;;;;;;;10.48;6.10;;;9.60;87.50;;;;;;1707650;84;21296;-71
2021/04/01 03:35:40;;;;;;;12.23;6.10;;;9.50;86.90;;;;;;1708069;84;21605;-74
2021/04/01 03:38:09;;;;;;;11.20;5.78;;;9.60;87.30;;;;;;1705794;84;21575;-72
2021/04/01 03:40:36;;;;;;;12.10;6.40;;;9.50;86.90;;;;;;1695032;83;21666;-75
2021/04/01 03:43:04;;;;;;;10.82;6.35;;;9.40;87.20;;;;;;1689235;83;21141;-74
2021/04/01 03:45:31;;;;;;;10.55;6.30;;;9.40;88.20;;;;;;1695804;84;21539;-74
2021/04/01 03:47:59;;;;;;;11.78;6.08;;;9.30;88.60;;;;;;1693429;84;21129;-74
2021/04/01 03:50:27;;;;;;;13.90;6.85;;;9.30;88.80;;;;;;1693471;85;21298;-73
2021/04/01 03:52:55;;;;;;;12.30;6.37;;;9.30;88.80;;;;;;1693544;84;21152;-77
2021/04/01 03:55:36;;;;;;;11.85;6.08;;;9.30;89.10;;;;;;1693523;84;21291;-71
2021/04/01 03:58:11;;;;;;;11.03;6.12;;;9.30;89.20;;;;;;1692247;85;21153;-71
2021/04/01 04:00:34;;;;;;;10.75;5.90;;;9.30;89.70;;;;;;1691416;85;21315;-75
2021/04/01 04:03:05;;;;;;;13.80;6.10;;;9.30;89.20;;;;;;1692684;85;21180;-74
2021/04/01 04:13:25;;;;;;;13.40;6.30;;;9.20;89.10;;;;;;1704822;84;21597;-73
2021/04/01 04:15:45;;;;;;;10.93;6.00;;;9.20;89.30;;;;;;1702998;84;21161;-72
2021/04/01 04:18:13;;;;;;;9.55;5.80;;;9.20;89.30;;;;;;1704928;84;21544;-73
2021/04/01 04:20:41;;;;;;;10.65;6.80;;;9.20;90.00;;;;;;1708175;84;21177;-72
2021/04/01 04:23:11;;;;;;;10.75;5.90;;;9.30;89.20;;;;;;1705176;84;21200;-71
2021/04/01 04:25:39;;;;;;;11.25;5.58;;;9.30;88.50;;;;;;1704538;84;21156;-72
2021/04/01 04:30:37;;;;;;;9.40;5.85;;;9.30;88.20;;;;;;1705852;84;21118;-73
2021/04/01 04:33:05;;;;;;;15.23;5.97;;;9.40;87.80;;;;;;1703549;84;21153;-74
2021/04/01 04:35:33;;;;;;;11.40;6.03;;;9.40;87.70;;;;;;1704763;83;21558;-75
2021/04/01 04:38:00;;;;;;;9.83;5.75;;;9.40;86.90;;;;;;1703015;84;21479;-74
2021/04/01 04:40:28;;;;;;;11.83;5.87;;;9.40;86.80;;;;;;1692593;84;21173;-73
2021/04/01 04:42:56;;;;;;;9.98;5.60;;;9.30;87.10;;;;;;1672107;84;21159;-74
2021/04/01 04:45:24;;;;;;;10.18;5.62;;;9.30;87.30;;;;;;1671399;86;21182;-73
2021/04/01 04:47:52;;;;;;;9.13;5.08;;;9.30;87.60;;;;;;1693672;84;21194;-74
2021/04/01 04:50:20;;;;;;;11.25;5.10;;;9.30;87.40;;;;;;1695861;84;21210;-73
2021/04/01 04:52:47;;;;;;;8.80;5.47;;;9.30;87.30;;;;;;1653794;86;21139;-74
2021/04/01 04:55:16;;;;;;;9.05;5.55;;;9.30;87.10;;;;;;1683888;84;21157;-74
2021/04/01 05:05:36;;;;;;;8.73;4.97;;;9.30;87.40;;;;;;1694212;84;21166;-72
2021/04/01 05:08:05;;;;;;;11.75;5.33;;;9.30;87.50;;;;;;1695608;84;21895;-74
2021/04/01 05:10:33;;;;;;;9.40;5.53;;;9.40;87.10;;;;;;1693123;84;21159;-74
2021/04/01 05:13:13;;;;;;;9.98;6.08;;;9.40;87.00;;;;;;1693810;84;21163;-75
2021/04/01 05:15:48;;;;;;;20.48;6.10;;;9.30;87.40;;;;;;1694575;84;21171;-74
2021/04/01 05:18:27;;;;;;;11.45;5.70;;;9.40;87.50;;;;;;1677055;85;21740;-76
2021/04/01 05:20:56;;;;;;;9.40;4.83;;;9.40;87.20;;;;;;1694186;84;21162;-74
2021/04/01 05:23:43;;;;;;;9.35;5.28;;;9.50;86.40;;;;;;1696155;84;21640;-73
2021/04/01 05:28:57;;;;;;;10.98;5.10;;;9.50;86.00;;;;;;1686277;84;21577;-74
2021/04/01 05:31:24;;;;;;;12.28;6.58;;;9.50;86.40;;;;;;1696131;84;21313;-73
2021/04/01 05:33:52;;;;;;;9.88;5.50;;;9.70;85.90;;;;;;1699223;83;21305;-75
2021/04/01 05:36:24;;;;;;;11.53;5.70;;;9.80;85.30;;;;;;1694860;84;21163;-75
2021/04/01 05:38:53;;;;;;;9.38;5.53;;;9.80;85.00;;;;;;1695499;84;21577;-76
2021/04/01 05:41:27;;;;;;;9.28;5.47;;;9.80;85.00;;;;;;1682464;85;21174;-75
2021/04/01 05:49:23;;;;;;;9.80;5.78;;;9.90;84.10;;;;;;1689178;85;21214;-75
2021/04/01 06:03:19;;;;;;;13.50;6.15;;;10.10;83.10;;;;;;1680361;85;21187;-75
2021/04/01 06:05:47;;;;;;;12.85;6.20;;;10.10;83.30;;;;;;1687119;85;21159;-75
2021/04/01 06:08:20;;;;;;;12.28;5.90;;;10.20;83.80;;;;;;1681449;85;21191;-74
2021/04/01 06:10:51;;;;;;;11.90;6.50;;;10.40;83.50;;;;;;1689550;85;21183;-75
2021/04/01 06:13:19;;;;;;;10.58;5.95;;;10.40;81.90;;;;;;1669276;85;21175;-74
2021/04/01 06:15:51;;;;;;;11.73;5.67;;;10.50;81.10;;;;;;1663538;85;21169;-76
2021/04/01 06:18:22;;;;;;;9.73;5.75;;;10.60;81.10;;;;;;1687076;85;21582;-74
2021/04/01 06:20:51;;;;;;;11.12;5.95;;;10.60;81.00;;;;;;1689506;85;21175;-74
2021/04/01 06:23:30;;;;;;;9.85;5.53;;;10.60;81.30;;;;;;1688969;83;21223;-72
2021/04/01 06:25:59;;;;;;;9.30;4.85;;;10.60;81.40;;;;;;1674024;83;21178;-75
2021/04/01 06:28:41;;;;;;;10.05;5.10;;;10.60;81.60;;;;;;1685939;83;21149;-76
2021/04/01 06:31:10;;;;;;;10.23;5.17;;;10.70;81.60;;;;;;1687873;84;21216;-73
2021/04/01 06:33:51;;;;;;;9.00;5.00;;;10.90;81.40;;;;;;1684093;84;21155;-73
2021/04/01 06:36:26;;;;;;;8.55;4.60;;;11.00;80.90;;;;;;1684281;85;21158;-75
2021/04/01 06:38:53;;;;;;;9.80;5.42;;;11.10;81.40;;;;;;1654817;86;21187;-75
2021/04/01 06:41:28;;;;;;;9.55;5.40;;;11.20;80.00;;;;;;1671637;84;21204;-78
2021/04/01 06:44:29;;;;;;;9.43;4.85;;;11.30;79.50;;;;;;1721536;83;21170;-75
2021/04/01 06:47:11;;;;;;;9.38;5.40;;;11.50;79.00;;;;;;1696039;84;21639;-74
2021/04/01 06:52:41;;;;;;;8.03;4.72;;;11.50;79.10;;;;;;1821832;78;22919;-72
2021/04/01 06:55:15;;;;;;;12.28;5.25;;;11.70;78.60;;;;;;1819186;79;21148;-73
2021/04/01 07:03:13;;;;;;;9.68;4.90;;;12.00;77.40;;;;;;1818664;79;21145;-73
2021/04/01 07:06:07;;;;;;;14.98;5.47;;;12.10;77.00;;;;;;1818534;79;21110;-75
2021/04/01 07:08:14;;;;;;;12.33;5.37;;;12.30;76.40;;;;;;1814211;79;21611;-76
2021/04/01 07:11:07;;;;;;;9.35;5.08;;;12.40;75.80;;;;;;1793801;78;21180;-71
2021/04/01 07:13:42;;;;;;;10.28;5.55;;;12.50;75.60;;;;;;1792067;79;21140;-73
2021/04/01 07:16:35;;;;;;;12.50;6.08;;;12.60;75.20;;;;;;1787556;80;21129;-73
2021/04/01 07:34:36;;;;;;;8.30;4.90;;;13.50;72.70;;;;;;1794369;79;21153;-74
2021/04/01 07:35:52;;;;;;;8.70;4.28;;;13.70;71.40;;;;;;1789636;79;21149;-73
2021/04/01 07:46:50;;;;;;;13.85;6.03;;;14.40;68.80;;;;;;1798077;79;21671;-73
2021/04/01 07:49:23;;;;;;;11.68;5.62;;;14.70;67.40;;;;;;1792569;79;21140;-73
2021/04/01 07:52:02;;;;;;;12.98;6.25;;;14.90;67.00;;;;;;1789018;79;21179;-72
2021/04/01 08:00:26;;;;;;;11.48;7.30;;;15.90;64.00;;;;;;1787125;80;21136;-72
2021/04/01 08:03:02;;;;;;;17.35;8.55;;;16.50;62.00;;;;;;1772145;79;21616;-73
2021/04/01 08:05:30;;;;;;;22.42;8.55;;;17.00;59.50;;;;;;1775753;79;21129;-74
2021/04/01 08:08:02;;;;;;;17.35;8.53;;;17.60;58.40;;;;;;1779401;80;21533;-75
2021/04/01 08:10:40;;;;;;;14.23;8.48;;;18.20;57.00;;;;;;1780045;80;21125;-74
2021/04/01 08:13:08;;;;;;;21.68;8.28;;;19.00;56.20;;;;;;1780893;79;21142;-75
2021/04/01 08:15:47;;;;;;;16.37;8.55;;;19.60;53.60;;;;;;1778564;79;21544;-77
2021/04/01 08:20:47;;;;;;;14.85;6.40;;;20.90;51.70;;;;;;1774024;79;21149;-76
2021/04/01 08:23:21;;;;;;;20.37;6.33;;;21.40;50.10;;;;;;1773216;80;21552;-73
2021/04/01 08:25:58;;;;;;;14.28;6.50;;;22.10;48.60;;;;;;1779304;79;21134;-75
2021/04/01 08:28:42;;;;;;;15.55;6.47;;;22.80;47.30;;;;;;1775234;80;21082;-74
2021/04/01 08:36:48;;;;;;;12.43;5.30;;;24.40;42.90;;;;;;1775530;80;21134;-72
2021/04/01 08:39:22;;;;;;;9.80;5.62;;;24.80;42.00;;;;;;1784982;79;21463;-72
2021/04/01 08:42:09;;;;;;;8.05;4.92;;;24.90;41.30;;;;;;1780406;79;21134;-71
2021/04/01 08:45:11;;;;;;;9.70;4.90;;;25.00;40.50;;;;;;1767946;81;21303;-74
2021/04/01 08:48:19;;;;;;;9.83;5.05;;;25.00;40.80;;;;;;1769813;80;21292;-74
2021/04/01 08:51:24;;;;;;;10.00;5.17;;;24.90;40.60;;;;;;1776571;80;21126;-73
2021/04/01 08:54:16;;;;;;;9.30;4.92;;;24.70;41.30;;;;;;1790873;79;21177;-76
2021/04/01 08:57:10;;;;;;;12.95;5.37;;;24.60;40.90;;;;;;1789619;79;21102;-74
2021/04/01 08:59:55;;;;;;;11.60;5.47;;;24.30;40.40;;;;;;1798983;79;21560;-78
2021/04/01 09:02:25;;;;;;;15.93;6.33;;;24.10;41.70;;;;;;1768930;79;21169;-74
2021/04/01 09:04:55;;;;;;;11.18;5.90;;;23.80;42.50;;;;;;1781380;80;21153;-73
2021/04/01 09:07:50;;;;;;;13.03;6.42;;;23.80;42.70;;;;;;1774578;80;21114;-73
2021/04/01 09:10:24;;;;;;;10.28;5.40;;;23.50;43.60;;;;;;1777424;80;21122;-78
2021/04/01 09:13:05;;;;;;;11.63;5.35;;;23.30;43.50;;;;;;1773269;79;21573;-77
2021/04/01 09:18:00;;;;;;;7.25;5.20;;;23.00;43.50;;;;;;1777055;80;21149;-74
2021/04/01 09:20:27;;;;;;;9.58;4.92;;;22.90;43.40;;;;;;1774712;80;21707;-75
2021/04/01 09:23:00;;;;;;;18.77;5.08;;;22.70;44.10;;;;;;1791445;80;21297;-76
2021/04/01 09:25:45;;;;;;;9.23;5.50;;;22.50;45.30;;;;;;1775213;80;21098;-77
2021/04/01 09:28:14;;;;;;;9.93;4.70;;;22.40;45.00;;;;;;1777032;80;21264;-77
2021/04/01 09:30:44;;;;;;;12.47;5.12;;;22.00;44.90;;;;;;1711218;82;21107;-78
2021/04/01 09:33:32;;;;;;;11.10;4.97;;;21.80;46.40;;;;;;1731631;82;21170;-79
2021/04/01 09:36:23;;;;;;;7.58;4.58;;;21.80;45.90;;;;;;1720597;83;21593;-77
2021/04/01 09:39:14;;;;;;;9.43;4.80;;;21.60;46.00;;;;;;1781622;80;21206;-78
2021/04/01 09:41:35;;;;;;;11.15;5.47;;;21.50;45.50;;;;;;1725396;82;21094;-77
2021/04/01 09:44:08;;;;;;;11.53;5.45;;;21.40;46.00;;;;;;1714796;83;21593;-79
2021/04/01 09:46:50;;;;;;;13.60;6.03;;;21.40;45.60;;;;;;1724341;82;21526;-79
2021/04/01 09:49:22;;;;;;;8.65;5.28;;;21.10;46.40;;;;;;1725157;81;21138;-78
2021/04/01 09:51:54;;;;;;;8.18;5.00;;;21.00;48.00;;;;;;1715242;83;21142;-78
2021/04/01 09:54:26;;;;;;;11.18;6.03;;;21.00;46.90;;;;;;1721568;80;21271;-78
2021/04/01 09:56:57;;;;;;;14.35;6.10;;;20.90;47.50;;;;;;1728688;82;21562;-77
2021/04/01 10:02:31;;;;;;;8.85;5.95;;;20.90;47.20;;;;;;1708894;83;21181;-78
2021/04/01 10:05:12;;;;;;;10.78;5.90;;;20.80;47.10;;;;;;1809623;79;22885;-76
2021/04/01 10:07:45;;;;;;;9.10;6.03;;;20.70;47.90;;;;;;1782503;80;21124;-74
2021/04/01 10:10:13;;;;;;;18.42;6.55;;;20.70;47.60;;;;;;1784100;80;21152;-77
2021/04/01 10:12:43;;;;;;;12.37;5.78;;;20.70;47.70;;;;;;1779325;80;21590;-75
2021/04/01 10:15:11;;;;;;;14.13;6.30;;;20.70;47.70;;;;;;1791733;79;21145;-74
2021/04/01 10:17:41;;;;;;;11.95;6.25;;;20.60;47.80;;;;;;1781784;80;21094;-76
2021/04/01 10:20:09;;;;;;;8.43;5.65;;;20.60;48.10;;;;;;1781081;80;21124;-75
2021/04/01 10:22:38;;;;;;;12.80;6.35;;;20.50;48.00;;;;;;1783142;80;21564;-78
2021/04/01 10:25:20;;;;;;;10.82;6.72;;;20.50;47.70;;;;;;1778327;80;21133;-72
2021/04/01 10:27:54;;;;;;;9.33;5.70;;;20.30;47.90;;;;;;1780053;80;21117;-76
2021/04/01 10:30:23;;;;;;;9.15;6.15;;;20.10;48.60;;;;;;1780840;80;21137;-75
2021/04/01 10:33:08;;;;;;;13.85;6.30;;;20.10;49.30;;;;;;1792584;79;21188;-77
2021/04/01 10:35:38;;;;;;;15.95;7.10;;;20.00;49.40;;;;;;1782423;79;21122;-77
2021/04/01 10:38:06;;;;;;;10.18;5.92;;;19.90;49.30;;;;;;1797208;79;21133;-78
2021/04/01 10:40:35;;;;;;;11.50;6.17;;;19.90;50.30;;;;;;1797468;79;21121;-76
2021/04/01 10:43:10;;;;;;;12.35;5.65;;;20.00;50.20;;;;;;1798229;79;21196;-77
2021/04/01 10:45:41;;;;;;;12.00;6.17;;;20.00;49.30;;;;;;1784145;80;21685;-77
2021/04/01 10:48:26;;;;;;;11.40;6.62;;;20.10;49.30;;;;;;1784665;79;21121;-76
2021/04/01 10:51:02;;;;;;;;;;;20.10;49.00;;;;;;1798476;79;21172;-78
2021/04/01 10:53:30;;;;;;;13.85;6.15;;;20.20;48.90;;;;;;1783784;79;20152;-76
2021/04/01 10:56:07;;;;;;;12.68;6.87;;;20.20;49.10;;;;;;1793435;79;21576;-74
2021/04/01 10:58:51;;;;;;;17.98;7.17;;;20.20;49.80;;;;;;1798519;79;21141;-74
2021/04/01 11:01:24;;;;;;;13.50;6.95;;;20.20;49.10;;;;;;1795111;79;21126;-74
2021/04/01 11:03:57;;;;;;;12.58;7.25;;;20.30;49.40;;;;;;1783046;79;21137;-75
2021/04/01 11:06:29;;;;;;;11.38;7.78;;;20.30;49.80;;;;;;1776613;79;21513;-73
2021/04/01 11:09:01;;;;;;;12.00;7.12;;;20.20;49.80;;;;;;1782258;79;21157;-73
2021/04/01 11:14:30;;;;;;;10.10;6.33;;;20.10;49.70;;;;;;1768039;81;21129;-77
2021/04/01 11:17:00;;;;;;;11.93;6.83;;;20.10;50.00;;;;;;1766283;81;21118;-77
2021/04/01 11:19:33;;;;;;;13.35;6.90;;;20.10;50.50;;;;;;1771307;81;21130;-76
2021/04/01 11:22:04;;;;;;;13.65;7.70;;;20.10;50.50;;;;;;1769828;81;21133;-74
2021/04/01 11:24:35;;;;;;;14.47;7.55;;;20.10;49.70;;;;;;1767132;80;21099;-76
2021/04/01 11:27:19;;;;;;;13.60;6.67;;;20.10;49.70;;;;;;1763505;79;22425;-79
2021/04/01 11:29:58;;;;;;;12.75;6.80;;;20.10;49.70;;;;;;1704707;83;21268;-78
2021/04/01 11:32:29;;;;;;;11.65;7.17;;;20.10;49.90;;;;;;1765985;79;21102;-76
2021/04/01 11:35:04;;;;;;;14.53;7.28;;;20.20;49.90;;;;;;1772185;80;21565;-75
2021/04/01 11:37:35;;;;;;;13.85;7.60;;;20.30;49.60;;;;;;1766321;81;21137;-78
2021/04/01 11:40:07;;;;;;;10.43;7.05;;;20.20;49.60;;;;;;1770751;80;21585;-77
2021/04/01 11:42:36;;;;;;;15.10;7.35;;;20.30;49.70;;;;;;1768259;81;21703;-75
2021/04/01 11:45:09;;;;;;;13.53;7.62;;;20.30;49.50;;;;;;1769351;80;21126;-74
2021/04/01 11:47:39;;;;;;;11.33;7.50;;;20.40;49.40;;;;;;1770996;81;21130;-74
2021/04/01 11:50:08;;;;;;;11.97;6.65;;;20.50;48.90;;;;;;1775479;81;21693;-74
2021/04/01 11:52:36;;;;;;;11.83;6.72;;;20.50;48.70;;;;;;1779413;81;21283;-74
2021/04/01 11:55:12;;;;;;;13.05;7.40;;;20.50;48.60;;;;;;1778352;80;21304;-74
2021/04/01 11:57:44;;;;;;;12.00;7.53;;;20.50;49.60;;;;;;1770699;81;21145;-74
2021/04/01 12:00:19;;;;;;;9.45;6.60;;;20.50;49.60;;;;;;1770249;81;21588;-74
2021/04/01 12:03:05;;;;;;;12.88;7.08;;;20.60;50.00;;;;;;1766659;81;21173;-75
2021/04/01 12:05:35;;;;;;;11.28;6.95;;;20.60;49.90;;;;;;1742844;81;21119;-74
2021/04/01 12:08:02;;;;;;;12.07;7.20;;;20.60;50.10;;;;;;1771247;80;21557;-75
2021/04/01 12:10:32;;;;;;;19.02;7.85;;;20.60;50.40;;;;;;1771498;80;21130;-76
2021/04/01 12:13:00;;;;;;;11.08;7.30;;;20.50;49.20;;;;;;1749053;81;21556;-73
2021/04/01 12:15:33;;;;;;;13.15;7.60;;;20.50;49.80;;;;;;1769622;81;21533;-74
2021/04/01 12:18:03;;;;;;;11.25;6.83;;;20.50;50.20;;;;;;1766598;81;21228;-74
2021/04/01 12:20:33;;;;;;;13.43;8.03;;;20.50;50.00;;;;;;1772758;81;21130;-79
2021/04/01 12:23:15;;;;;;;11.97;7.47;;;20.40;50.00;;;;;;1772665;81;21119;-77
2021/04/01 12:25:43;;;;;;;12.37;7.40;;;20.30;50.30;;;;;;1772311;81;21095;-74
2021/04/01 12:28:23;;;;;;;13.20;8.05;;;20.30;50.60;;;;;;1770739;80;21135;-77
2021/04/01 12:30:52;;;;;;;13.85;7.90;;;20.20;51.80;;;;;;1769448;81;21683;-74
2021/04/01 12:33:23;;;;;;;13.38;7.70;;;20.20;51.10;;;;;;1769685;81;21149;-73
2021/04/01 12:36:01;;;;;;;12.28;7.15;;;20.20;50.90;;;;;;1767256;81;21122;-75
2021/04/01 12:38:41;;;;;;;16.48;7.00;;;20.20;51.30;;;;;;1765532;81;21190;-75
2021/04/01 12:41:28;;;;;;;15.50;7.62;;;20.20;51.00;;;;;;1766914;81;21166;-76
2021/04/01 12:43:57;;;;;;;12.00;7.05;;;20.20;50.60;;;;;;1768122;81;21134;-75
2021/04/01 12:46:38;;;;;;;10.45;7.05;;;20.30;50.80;;;;;;1768138;81;21579;-75
2021/04/01 12:49:10;;;;;;;12.98;6.72;;;20.30;51.00;;;;;;1742020;80;21149;-73
2021/04/01 12:51:46;;;;;;;11.45;6.90;;;20.30;50.80;;;;;;1768546;81;21167;-76
2021/04/01 12:54:18;;;;;;;11.75;6.65;;;20.40;51.00;;;;;;1777830;81;21178;-74
2021/04/01 12:56:50;;;;;;;11.38;6.50;;;20.40;50.50;;;;;;1772377;81;21139;-74
2021/04/01 12:59:23;;;;;;;10.95;6.83;;;20.40;50.50;;;;;;1778517;80;21193;-74
2021/04/01 13:01:54;;;;;;;14.13;6.58;;;20.50;50.80;;;;;;1772950;81;21122;-74
2021/04/01 13:04:25;;;;;;;14.30;6.80;;;20.50;50.80;;;;;;1778382;81;21220;-74
2021/04/01 13:11:53;;;;;;;12.03;6.80;;;20.70;50.60;;;;;;1778363;80;21141;-74
2021/04/01 13:14:23;;;;;;;11.73;6.53;;;20.70;49.90;;;;;;1778685;81;21151;-74
2021/04/01 13:16:52;;;;;;;25.95;7.70;;;20.80;50.10;;;;;;1779070;81;21099;-73
2021/04/01 13:19:20;;;;;;;11.33;7.37;;;20.90;49.40;;;;;;1778547;80;21564;-74
2021/04/01 13:24:31;;;;;;;14.28;6.20;;;20.90;49.60;;;;;;1778478;81;21585;-75
2021/04/01 13:26:59;;;;;;;9.08;6.03;;;20.80;49.30;;;;;;1778593;81;21134;-75
2021/04/01 13:29:31;;;;;;;10.48;5.80;;;20.80;49.60;;;;;;1778549;81;21166;-75
2021/04/01 13:34:50;;;;;;;10.35;5.33;;;20.80;48.90;;;;;;1766565;81;21113;-75
2021/04/01 13:37:27;;;;;;;10.28;5.62;;;20.80;49.20;;;;;;1733506;82;21138;-75
2021/04/01 13:40:07;;;;;;;10.93;5.72;;;20.70;49.30;;;;;;1729660;82;21600;-75
2021/04/01 13:42:36;;;;;;;16.02;5.87;;;20.70;49.30;;;;;;1743514;81;21239;-75
2021/04/01 13:45:10;;;;;;;9.78;6.10;;;20.60;49.60;;;;;;1741460;81;21129;-75
2021/04/01 13:47:43;;;;;;;11.18;5.50;;;20.60;49.80;;;;;;1743754;81;21142;-76
2021/04/01 13:50:16;;;;;;;9.45;5.50;;;20.60;49.60;;;;;;1749007;81;21173;-74
2021/04/01 14:01:23;;;;;;;12.33;5.58;;;20.70;49.80;;;;;;1747289;81;21157;-75
2021/04/01 14:09:34;;;;;;;10.13;5.50;;;20.80;49.40;;;;;;1698967;84;21130;-76
2021/04/01 14:12:06;;;;;;;7.70;4.80;;;20.90;49.60;;;;;;1740128;80;21129;-76
2021/04/01 14:14:37;;;;;;;10.30;5.90;;;20.90;49.20;;;;;;1751198;80;21142;-75
2021/04/01 14:17:05;;;;;;;10.63;5.90;;;20.90;49.10;;;;;;1763330;80;21252;-74
2021/04/01 14:19:34;;;;;;;9.65;5.75;;;20.90;49.60;;;;;;1750846;80;21174;-75
2021/04/01 14:22:02;;;;;;;13.08;5.95;;;20.90;49.50;;;;;;1761400;80;21134;-75
2021/04/01 14:24:39;;;;;;;7.80;5.47;;;20.80;49.50;;;;;;1760702;80;21292;-74
2021/04/01 14:29:43;;;;;;;9.73;5.72;;;20.70;49.80;;;;;;1753789;80;21591;-74
2021/04/01 14:32:13;;;;;;;10.50;5.65;;;20.70;49.40;;;;;;1765386;80;21137;-73
2021/04/01 14:34:41;;;;;;;8.55;5.33;;;20.70;49.60;;;;;;1758620;80;21087;-72
2021/04/01 14:37:12;;;;;;;8.88;6.05;;;20.70;49.70;;;;;;1758838;80;21584;-72
2021/04/01 14:39:40;;;;;;;7.60;5.17;;;20.60;50.00;;;;;;1752117;82;21154;-74
2021/04/01 14:42:12;;;;;;;10.23;6.03;;;20.60;50.10;;;;;;1751856;82;21184;-74
2021/04/01 14:44:40;;;;;;;9.15;5.87;;;20.50;50.70;;;;;;1752039;82;21146;-74
2021/04/01 14:47:10;;;;;;;11.60;7.40;;;20.40;50.40;;;;;;1752441;82;21146;-73
2021/04/01 14:49:37;;;;;;;12.80;7.03;;;20.30;50.80;;;;;;1752414;82;21142;-73
2021/04/01 14:52:06;;;;;;;10.40;7.17;;;20.30;50.90;;;;;;1752679;82;21102;-73
2021/04/01 14:54:36;;;;;;;14.25;7.70;;;20.30;51.10;;;;;;1752551;82;21161;-73
2021/04/01 14:57:10;;;;;;;13.30;7.58;;;20.20;51.10;;;;;;1752295;82;21141;-74
2021/04/01 14:59:44;;;;;;;13.80;8.03;;;20.10;51.50;;;;;;1752290;82;21127;-73
2021/04/01 15:02:17;;;;;;;12.78;7.87;;;20.00;51.70;;;;;;1752305;82;21137;-74
2021/04/01 15:04:46;;;;;;;15.68;8.43;;;20.00;51.90;;;;;;1752340;82;21146;-74
2021/04/01 15:07:14;;;;;;;14.20;8.33;;;20.00;52.00;;;;;;1771300;80;21169;-74